Flight Track Log - Related Links

Times and Time Zones

All times are in EDT time to prevent confusion due to time zone crossing. See the WAE5 flight status page for this flight to view local times or setup timezone preferences in your user account.

Time Position Orientation Groundspeed Altitude Reporting Facility
EDT Latitude Longitude Course Direction KTS MPH feet Rate Location/Type
Fri 08:41:41 AM 40.8067 -111.9794 311° West 111 128 4,900  Level Salt Lake Center
Fri 08:42:23 AM 40.8219 -112.0025 311° West 123 142 5,500 897 Climbing Salt Lake Center
Fri 08:43:08 AM 40.8386 -112.0222 318° Northwest 116 133 6,200 885 Climbing Salt Lake Center
Fri 08:43:24 AM 40.8464 -112.0283 329° Northwest 114 131 6,400 787 Climbing Salt Lake Center
Fri 08:44:09 AM 40.8672 -112.0439 331° Northwest 119 137 7,000 800 Climbing Salt Lake Center
Fri 08:44:24 AM 40.8742 -112.0500 326° Northwest 119 137 7,200 900 Climbing Salt Lake Center
Fri 08:45:09 AM 40.8972 -112.0675 330° Northwest 125 144 7,900 885 Climbing Salt Lake Center
Fri 08:45:25 AM 40.9047 -112.0736 328° Northwest 127 146 8,100 787 Climbing Salt Lake Center
Fri 08:46:10 AM 40.9325 -112.0786 352° North 132 152 8,700 700 Climbing Salt Lake Center
Fri 08:46:25 AM 40.9428 -112.0806 352° North 132 152 8,800 700 Climbing Salt Lake Center
Fri 08:47:10 AM 40.9722 -112.0883 349° North 144 166 9,400 806 Climbing Salt Lake Center
Fri 08:47:32 AM 40.9883 -112.0936 346° North 146 168 9,700 492 Climbing Salt Lake Center
Fri 08:48:11 AM 41.0136 -112.0978 353° North 150 173 9,900 120 Climbing Salt Lake Center
Fri 08:49:12 AM 41.0642 -112.0997 358° North 180 207 9,900  Level Salt Lake Center
Fri 08:50:12 AM 41.1167 -112.1011 359° North 189 217 9,900  Level Salt Lake Center
Fri 08:51:13 AM 41.1703 -112.1022 359° North 191 220 9,900  Level Salt Lake Center
Fri 08:52:13 AM 41.2228 -112.1022 360° North 189 217 9,900  Level Salt Lake Center
Fri 08:53:14 AM 41.2761 -112.1017 360° North 189 217 9,900  Level Salt Lake Center
Fri 08:54:15 AM 41.3236 -112.1347 332° Northwest 190 219 9,900  Level Salt Lake Center
Fri 08:55:15 AM 41.3736 -112.1575 341° North 189 217 9,900  Level Salt Lake Center
Fri 08:56:16 AM 41.4267 -112.1731 348° North 194 223 9,900  Level Salt Lake Center
Fri 08:57:17 AM 41.4769 -112.1906 345° North 186 214 9,900  Level Salt Lake Center
Fri 08:58:17 AM 41.5283 -112.2117 343° North 191 220 9,900  Level Salt Lake Center
Fri 08:59:18 AM 41.5797 -112.2267 348° North 191 220 9,900  Level Salt Lake Center
Fri 09:00:19 AM 41.6286 -112.2439 345° North 185 213 9,900  Level Salt Lake Center
Fri 09:01:19 AM 41.6778 -112.2603 346° North 183 211 9,900 50 Level Salt Lake Center
Fri 09:02:20 AM 41.7289 -112.2803 344° North 188 216 10,000  Climbing Salt Lake Center
Fri 09:03:21 AM 41.7783 -112.3017 342° North 187 215 9,900  Descending Salt Lake Center
Fri 09:04:22 AM 41.8269 -112.3211 343° North 184 212 10,000 50 Climbing Salt Lake Center
Fri 09:05:22 AM 41.8767 -112.3419 343° North 185 213 10,000 -50 Level Salt Lake Center
Fri 09:06:23 AM 41.9267 -112.3636 342° North 187 215 9,900  Descending Salt Lake Center
Fri 09:07:24 AM 41.9881 -112.3864 345° North 189 217 10,000 50 Climbing Salt Lake Center
Fri 09:08:24 AM 42.0403 -112.3983 350° North 190 219 10,000  Level Salt Lake Center
Fri 09:09:25 AM 42.0922 -112.4131 348° North 190 219 10,000 -49 Level Salt Lake Center
Fri 09:10:26 AM 42.1425 -112.4319 344° North 190 219 9,900 49 Descending Salt Lake Center
Fri 09:11:27 AM 42.1936 -112.4494 346° North 189 217 10,100 98 Climbing Salt Lake Center
Fri 09:12:28 AM 42.2444 -112.4600 351° North 187 215 10,100  Level Salt Lake Center
Fri 09:13:28 AM 42.2972 -112.4767 347° North 190 219 10,100  Level Salt Lake Center
Fri 09:14:30 AM 42.3469 -112.4911 348° North 188 216 10,100  Level Salt Lake Center
Fri 09:15:30 AM 42.3978 -112.5050 349° North 187 215 10,100  Level Salt Lake Center
Fri 09:16:31 AM 42.4478 -112.5194 348° North 185 213 10,100  Level Salt Lake Center
Fri 09:17:32 AM 42.4978 -112.5325 349° North 184 212 10,100  Level Salt Lake Center
Fri 09:18:32 AM 42.5464 -112.5444 350° North 180 207 10,100  Level Salt Lake Center
Fri 09:19:33 AM 42.5947 -112.5572 349° North 178 205 10,100  Level Salt Lake Center
Fri 09:20:34 AM 42.6419 -112.5719 347° North 176 203 10,100  Level Salt Lake Center
Fri 09:21:35 AM 42.6886 -112.5906 344° North 175 201 10,100 -49 Level Salt Lake Center
Fri 09:22:36 AM 42.7406 -112.6103 344° North 175 201 10,000 -492 Descending Salt Lake Center
Fri 09:23:37 AM 42.8022 -112.6278 348° North 184 212 9,100 -496 Descending Salt Lake Center
Fri 09:24:37 AM 42.8486 -112.6431 346° North 194 223 9,000 -1,438 Descending Salt Lake Center
Fri 09:25:38 AM 42.9122 -112.6467 358° North 200 230 6,200 -1,328 Descending Salt Lake Center
Fri 09:26:39 AM 42.9461 -112.5803 55° Northeast 214 246 6,300 -393 Climbing Salt Lake Center
Fri 09:27:40 AM 42.9303 -112.5511 127° Southeast 172 198 5,400 -885 Descending Salt Lake Center

Login

Don't have an account? Register now (free) for customized features, flight alerts, and more!